createdAt,value
2023-04-22T00:02:17.260Z,95679.38
2023-04-22T00:05:03.797Z,95677.47
2023-04-22T00:07:49.217Z,95677.00
2023-04-22T00:10:34.782Z,95684.22
2023-04-22T00:13:19.625Z,95681.31
2023-04-22T00:16:05.037Z,95674.94
2023-04-22T00:18:50.261Z,95688.19
2023-04-22T00:21:35.670Z,95675.16
2023-04-22T00:24:21.094Z,95682.34
2023-04-22T00:27:06.476Z,95682.53
2023-04-22T00:29:51.839Z,95683.06
2023-04-22T00:32:38.154Z,95683.44
2023-04-22T00:35:23.506Z,95680.50
2023-04-22T00:38:08.844Z,95677.25
2023-04-22T00:40:54.129Z,95676.94
2023-04-22T00:43:39.477Z,95678.75
2023-04-22T00:46:25.701Z,95669.09
2023-04-22T00:49:11.299Z,95666.19
2023-04-22T00:51:56.622Z,95662.09
2023-04-22T00:54:41.835Z,95662.09
2023-04-22T00:57:29.716Z,95664.53
2023-04-22T01:00:15.353Z,95666.84
2023-04-22T01:03:01.001Z,95669.19
2023-04-22T01:05:49.782Z,95671.16
2023-04-22T01:08:35.633Z,95674.78
2023-04-22T01:11:20.735Z,95671.97
2023-04-22T01:14:06.264Z,95672.91
2023-04-22T01:16:54.143Z,95675.72
2023-04-22T01:19:40.352Z,95679.66
2023-04-22T01:22:27.455Z,95681.19
2023-04-22T01:25:12.964Z,95670.22
2023-04-22T01:27:58.799Z,95680.41
2023-04-22T01:30:44.425Z,95678.28
2023-04-22T01:33:29.642Z,95675.19
2023-04-22T01:36:14.761Z,95678.16
2023-04-22T01:39:01.066Z,95667.03
2023-04-22T01:41:47.040Z,95673.94
2023-04-22T01:44:32.497Z,95670.31
2023-04-22T01:47:17.728Z,95675.91
2023-04-22T01:50:03.154Z,95679.03
2023-04-22T01:52:48.594Z,95688.03
2023-04-22T01:55:36.189Z,95683.78
2023-04-22T01:58:21.701Z,95682.16
2023-04-22T02:01:10.748Z,95674.13
2023-04-22T02:03:55.818Z,95682.16
2023-04-22T02:06:41.384Z,95677.91
2023-04-22T02:09:26.737Z,95677.25
2023-04-22T02:12:11.907Z,95674.16
2023-04-22T02:14:57.200Z,95669.28
2023-04-22T02:17:43.505Z,95670.41
2023-04-22T02:20:30.601Z,95670.75
2023-04-22T02:23:16.344Z,95673.53
2023-04-22T02:26:01.603Z,95668.50
2023-04-22T02:28:46.718Z,95668.81
2023-04-22T02:31:31.850Z,95666.34
2023-04-22T02:34:17.138Z,95664.25
2023-04-22T02:37:02.373Z,95663.44
2023-04-22T02:39:47.464Z,95663.28
2023-04-22T02:42:33.022Z,95662.28
2023-04-22T02:45:18.013Z,95660.97
2023-04-22T02:48:03.504Z,95659.72
2023-04-22T02:50:48.488Z,95657.56
2023-04-22T02:53:33.788Z,95662.97
2023-04-22T02:56:19.100Z,95670.03
2023-04-22T02:59:04.542Z,95661.19
2023-04-22T03:01:49.881Z,95664.94
2023-04-22T03:04:35.437Z,95659.41
2023-04-22T03:07:20.996Z,95658.13
2023-04-22T03:10:07.118Z,95675.44
2023-04-22T03:12:52.268Z,95665.63
2023-04-22T03:15:40.262Z,95668.59
2023-04-22T03:18:25.262Z,95675.78
2023-04-22T03:21:10.610Z,95676.78
2023-04-22T03:23:55.892Z,95678.75
2023-04-22T03:26:41.299Z,95676.13
2023-04-22T03:29:26.561Z,95679.88
2023-04-22T03:32:11.842Z,95675.97
2023-04-22T03:34:57.157Z,95683.34
2023-04-22T03:37:42.368Z,95681.03
2023-04-22T03:40:27.663Z,95687.25
2023-04-22T03:43:12.819Z,95683.66
2023-04-22T03:45:59.790Z,95683.03
2023-04-22T03:48:44.968Z,95683.34
2023-04-22T03:51:30.185Z,95688.41
2023-04-22T03:54:15.562Z,95693.81
2023-04-22T03:57:00.992Z,95691.50
2023-04-22T03:59:46.466Z,95689.88
2023-04-22T04:02:31.973Z,95691.66
2023-04-22T04:05:17.484Z,95694.78
2023-04-22T04:08:03.377Z,95698.03
2023-04-22T04:10:48.582Z,95694.44
2023-04-22T04:13:33.872Z,95703.28
2023-04-22T04:16:19.225Z,95701.66
2023-04-22T04:19:05.491Z,95704.44
2023-04-22T04:21:52.227Z,95704.75
2023-04-22T04:24:41.933Z,95705.88
2023-04-22T04:27:28.123Z,95711.94
2023-04-22T04:30:14.568Z,95708.19
2023-04-22T04:32:59.703Z,95706.50
2023-04-22T04:35:45.041Z,95717.28
2023-04-22T04:38:30.897Z,95717.47
2023-04-22T04:41:15.907Z,95716.28
2023-04-22T04:44:01.585Z,95715.31
2023-04-22T04:46:47.332Z,95715.16
2023-04-22T04:49:32.546Z,95721.84
2023-04-22T04:52:17.874Z,95717.25
2023-04-22T04:55:03.259Z,95721.97
2023-04-22T04:57:48.954Z,95721.66
2023-04-22T05:00:34.079Z,95709.38
2023-04-22T05:03:19.550Z,95710.94
2023-04-22T05:06:05.600Z,95713.41
2023-04-22T05:08:50.639Z,95712.91
2023-04-22T05:11:35.897Z,95715.47
2023-04-22T05:14:21.215Z,95711.53
2023-04-22T05:17:06.559Z,95717.53
2023-04-22T05:19:51.958Z,95713.41
2023-04-22T05:22:37.421Z,95711.09
2023-04-22T05:25:22.532Z,95705.19
2023-04-22T05:28:07.886Z,95707.75
2023-04-22T05:30:53.096Z,95712.75
2023-04-22T05:33:38.341Z,95706.19
2023-04-22T05:36:23.693Z,95704.34
2023-04-22T05:39:09.251Z,95697.78
2023-04-22T05:41:54.845Z,95693.28
2023-04-22T05:44:40.023Z,95698.47
2023-04-22T05:47:25.193Z,95699.03
2023-04-22T05:50:11.228Z,95704.03
2023-04-22T05:52:56.721Z,95702.97
2023-04-22T05:55:42.229Z,95696.66
2023-04-22T05:58:27.422Z,95697.22
2023-04-22T06:01:13.585Z,95698.16
2023-04-22T06:03:58.849Z,95695.06
2023-04-22T06:06:44.307Z,95694.00
2023-04-22T06:09:29.441Z,95705.22
2023-04-22T06:12:15.425Z,95704.94
2023-04-22T06:15:00.802Z,95696.78
2023-04-22T06:17:46.110Z,95702.41
2023-04-22T06:20:35.925Z,95702.75
2023-04-22T06:23:21.545Z,95696.84
2023-04-22T06:26:07.134Z,95696.63
2023-04-22T06:28:52.715Z,95700.78
2023-04-22T06:31:38.085Z,95699.75
2023-04-22T06:34:23.706Z,95692.19
2023-04-22T06:37:08.976Z,95699.97
2023-04-22T06:39:54.533Z,95693.22
2023-04-22T06:42:39.896Z,95693.81
2023-04-22T06:45:25.746Z,95686.13
2023-04-22T06:48:10.802Z,95686.44
2023-04-22T06:50:57.423Z,95681.13
2023-04-22T06:53:42.575Z,95682.63
2023-04-22T06:56:27.844Z,95685.94
2023-04-22T06:59:13.038Z,95678.09
2023-04-22T07:01:58.589Z,95687.28
2023-04-22T07:04:43.914Z,95674.34
2023-04-22T07:07:29.950Z,95677.22
2023-04-22T07:10:15.305Z,95678.66
2023-04-22T07:13:00.686Z,95674.41
2023-04-22T07:15:46.391Z,95672.38
2023-04-22T07:18:31.470Z,95675.66
2023-04-22T07:21:16.706Z,95674.66
2023-04-22T07:24:02.049Z,95678.53
2023-04-22T07:26:47.309Z,95679.72
2023-04-22T07:29:32.823Z,95672.97
2023-04-22T07:32:18.117Z,95672.31
2023-04-22T07:35:03.522Z,95669.41
2023-04-22T07:37:48.898Z,95669.16
2023-04-22T07:40:34.441Z,95668.41
2023-04-22T07:43:20.040Z,95664.91
2023-04-22T07:46:05.402Z,95666.84
2023-04-22T07:48:50.849Z,95667.34
2023-04-22T07:51:36.554Z,95663.66
2023-04-22T07:54:21.817Z,95657.38
2023-04-22T07:57:07.139Z,95659.72
2023-04-22T07:59:52.818Z,95659.97
2023-04-22T08:02:38.345Z,95655.56
2023-04-22T08:05:23.407Z,95660.16
2023-04-22T08:08:08.617Z,95657.25
2023-04-22T08:10:53.991Z,95652.75
2023-04-22T08:13:39.240Z,95651.31
2023-04-22T08:16:24.778Z,95648.50
2023-04-22T08:19:09.808Z,95650.28
2023-04-22T08:21:55.337Z,95647.41
2023-04-22T08:24:40.733Z,95651.91
2023-04-22T08:27:25.836Z,95644.88
2023-04-22T08:30:11.441Z,95645.69
2023-04-22T08:32:56.561Z,95643.38
2023-04-22T08:35:41.946Z,95639.53
2023-04-22T08:38:27.166Z,95642.88
2023-04-22T08:41:12.903Z,95648.22
2023-04-22T08:43:58.467Z,95634.75
2023-04-22T08:46:47.010Z,95633.09
2023-04-22T08:49:35.286Z,95630.97
2023-04-22T08:52:21.158Z,95644.31
2023-04-22T08:55:07.038Z,95634.53
2023-04-22T08:57:53.467Z,95629.34
2023-04-22T09:00:42.753Z,95634.44
2023-04-22T09:03:28.112Z,95632.09
2023-04-22T09:06:13.686Z,95631.06
2023-04-22T09:08:59.104Z,95636.34
2023-04-22T09:11:44.361Z,95630.03
2023-04-22T09:14:30.188Z,95624.88
2023-04-22T09:17:17.451Z,95628.31
2023-04-22T09:20:04.289Z,95624.16
2023-04-22T09:22:50.073Z,95624.44
2023-04-22T09:25:35.970Z,95628.16
2023-04-22T09:28:21.189Z,95625.34
2023-04-22T09:31:06.414Z,95623.56
2023-04-22T09:33:54.204Z,95625.06
2023-04-22T09:36:40.639Z,95618.03
2023-04-22T09:39:25.881Z,95611.41
2023-04-22T09:42:11.452Z,95610.66
2023-04-22T09:44:59.990Z,95615.97
2023-04-22T09:47:47.026Z,95610.69
2023-04-22T09:50:32.678Z,95599.00
2023-04-22T09:53:20.647Z,95603.50
2023-04-22T09:56:05.912Z,95597.38
2023-04-22T09:58:52.991Z,95608.53
2023-04-22T10:01:42.651Z,95599.00
2023-04-22T10:04:28.499Z,95604.66
2023-04-22T10:07:15.296Z,95594.53
2023-04-22T10:10:00.882Z,95598.28
2023-04-22T10:12:48.252Z,95596.34
2023-04-22T10:15:41.341Z,95596.69
2023-04-22T10:18:28.196Z,95588.38
2023-04-22T10:21:14.435Z,95589.72
2023-04-22T10:24:00.810Z,95579.03
2023-04-22T10:26:59.910Z,95585.53
2023-04-22T10:29:45.163Z,95571.97
2023-04-22T10:32:31.029Z,95584.91
2023-04-22T10:35:16.597Z,95575.03
2023-04-22T10:38:01.788Z,95572.34
2023-04-22T10:41:00.473Z,95576.50
2023-04-22T10:43:48.296Z,95579.28
2023-04-22T10:46:45.405Z,95572.56
2023-04-22T10:49:32.160Z,95573.72
2023-04-22T10:52:30.368Z,95581.53
2023-04-22T10:55:16.435Z,95580.16
2023-04-22T10:58:01.869Z,95579.34
2023-04-22T11:00:54.256Z,95564.94
2023-04-22T11:03:40.136Z,95574.53
2023-04-22T11:06:27.965Z,95575.09
2023-04-22T11:09:13.096Z,95570.81
2023-04-22T11:12:39.713Z,95575.63
2023-04-22T11:15:24.942Z,95573.69
2023-04-22T11:18:25.211Z,95569.16
2023-04-22T11:21:10.495Z,95569.66
2023-04-22T11:23:57.095Z,95565.91
2023-04-22T11:26:42.484Z,95566.44
2023-04-22T11:29:28.168Z,95562.13
2023-04-22T11:32:14.298Z,95555.72
2023-04-22T11:35:13.425Z,95561.38
2023-04-22T11:38:04.276Z,95568.84
2023-04-22T11:40:49.754Z,95564.63
2023-04-22T11:43:34.916Z,95561.47
2023-04-22T11:46:38.706Z,95555.19
2023-04-22T11:49:26.916Z,95556.69
2023-04-22T11:52:11.861Z,95557.66
2023-04-22T11:55:00.213Z,95548.47
2023-04-22T11:57:46.458Z,95549.09
2023-04-22T12:00:38.388Z,95548.06
2023-04-22T12:03:26.387Z,95548.38
2023-04-22T12:06:12.014Z,95539.00
2023-04-22T12:08:57.207Z,95546.78
2023-04-22T12:11:42.297Z,95540.66
2023-04-22T12:14:35.523Z,95542.34
2023-04-22T12:17:24.896Z,95542.34
2023-04-22T12:20:13.497Z,95546.91
2023-04-22T12:22:58.780Z,95537.00
2023-04-22T12:25:44.049Z,95533.84
2023-04-22T12:28:29.491Z,95531.66
2023-04-22T12:31:15.150Z,95532.97
2023-04-22T12:34:00.723Z,95531.53
2023-04-22T12:36:46.129Z,95536.06
2023-04-22T12:39:32.258Z,95531.22
2023-04-22T12:42:17.599Z,95528.19
2023-04-22T12:45:04.326Z,95532.19
2023-04-22T12:47:55.607Z,95524.13
2023-04-22T12:50:41.361Z,95525.69
2023-04-22T12:53:27.974Z,95525.13
2023-04-22T12:56:13.362Z,95532.91
2023-04-22T12:59:03.250Z,95526.53
2023-04-22T13:01:49.104Z,95522.84
2023-04-22T13:04:34.419Z,95521.28
2023-04-22T13:07:20.254Z,95517.88
2023-04-22T13:10:06.696Z,95508.81
2023-04-22T13:12:51.676Z,95513.34
2023-04-22T13:15:37.118Z,95511.50
2023-04-22T13:18:23.319Z,95504.53
2023-04-22T13:21:08.894Z,95502.16
2023-04-22T13:23:54.141Z,95500.84
2023-04-22T13:26:39.603Z,95505.13
2023-04-22T13:29:26.167Z,95500.03
2023-04-22T13:32:11.485Z,95499.28
2023-04-22T13:34:56.643Z,95494.94
2023-04-22T13:37:41.923Z,95497.91
2023-04-22T13:40:27.476Z,95497.91
2023-04-22T13:43:13.210Z,95492.56
2023-04-22T13:45:58.506Z,95489.59
2023-04-22T13:48:44.040Z,95496.59
2023-04-22T13:51:32.236Z,95489.03
2023-04-22T13:54:17.360Z,95495.19
2023-04-22T13:57:03.359Z,95496.00
2023-04-22T13:59:49.780Z,95494.13
2023-04-22T14:02:35.012Z,95490.41
2023-04-22T14:05:20.456Z,95498.47
2023-04-22T14:08:05.816Z,95495.78
2023-04-22T14:10:51.162Z,95492.03
2023-04-22T14:13:36.440Z,95490.44
2023-04-22T14:16:21.945Z,95494.00
2023-04-22T14:19:08.982Z,95491.88
2023-04-22T14:21:54.748Z,95490.81
2023-04-22T14:24:39.802Z,95487.38
2023-04-22T14:27:26.197Z,95483.88
2023-04-22T14:30:11.945Z,95479.59
2023-04-22T14:32:57.087Z,95478.78
2023-04-22T14:35:42.374Z,95486.00
2023-04-22T14:38:27.723Z,95485.75
2023-04-22T14:41:13.300Z,95470.72
2023-04-22T14:43:58.827Z,95475.00
2023-04-22T14:46:45.216Z,95472.06
2023-04-22T14:49:31.989Z,95474.47
2023-04-22T14:52:18.832Z,95472.88
2023-04-22T14:55:15.553Z,95474.47
2023-04-22T14:58:07.564Z,95468.03
2023-04-22T15:00:53.304Z,95466.41
2023-04-22T15:03:38.781Z,95463.75
2023-04-22T15:06:24.747Z,95458.66
2023-04-22T15:09:09.867Z,95468.59
2023-04-22T15:11:56.478Z,95463.50
2023-04-22T15:14:42.096Z,95463.75
2023-04-22T15:17:27.497Z,95455.97
2023-04-22T15:20:13.634Z,95453.56
2023-04-22T15:22:58.756Z,95461.59
2023-04-22T15:25:43.922Z,95453.03
2023-04-22T15:28:29.424Z,95455.41
2023-04-22T15:31:14.925Z,95447.91
2023-04-22T15:34:00.264Z,95448.69
2023-04-22T15:36:46.411Z,95443.34
2023-04-22T15:39:31.327Z,95450.84
2023-04-22T15:42:16.545Z,95451.41
2023-04-22T15:45:03.633Z,95447.13
2023-04-22T15:47:52.293Z,95442.81
2023-04-22T15:50:39.867Z,95454.88
2023-04-22T15:53:25.454Z,95449.25
2023-04-22T15:56:10.651Z,95453.03
2023-04-22T15:58:56.029Z,95444.44
2023-04-22T16:01:41.936Z,95450.34
2023-04-22T16:04:28.706Z,95447.41
2023-04-22T16:07:13.877Z,95445.50
2023-04-22T16:09:59.283Z,95446.03
2023-04-22T16:12:44.516Z,95445.22
2023-04-22T16:15:29.972Z,95449.28
2023-04-22T16:18:15.265Z,95452.50
2023-04-22T16:21:01.324Z,95455.97
2023-04-22T16:23:46.768Z,95452.78
2023-04-22T16:26:32.301Z,95451.97
2023-04-22T16:29:17.992Z,95454.63
2023-04-22T16:32:03.717Z,95446.59
2023-04-22T16:34:49.036Z,95451.97
2023-04-22T16:37:34.521Z,95458.38
2023-04-22T16:40:19.923Z,95446.06
2023-04-22T16:43:06.382Z,95447.66
2023-04-22T16:45:51.686Z,95451.97
2023-04-22T16:48:37.047Z,95453.00
2023-04-22T16:51:22.623Z,95451.94
2023-04-22T16:54:08.155Z,95441.72
2023-04-22T16:56:53.237Z,95455.38
2023-04-22T16:59:39.064Z,95448.66
2023-04-22T17:02:24.856Z,95444.34
2023-04-22T17:05:10.175Z,95448.06
2023-04-22T17:07:55.721Z,95455.75
2023-04-22T17:10:45.365Z,95451.66
2023-04-22T17:13:31.088Z,95452.09
2023-04-22T17:16:16.263Z,95462.16
2023-04-22T17:19:02.054Z,95455.13
2023-04-22T17:21:47.304Z,95458.25
2023-04-22T17:24:32.441Z,95461.38
2023-04-22T17:27:17.935Z,95456.16
2023-04-22T17:30:03.474Z,95464.88
2023-04-22T17:32:48.757Z,95465.28
2023-04-22T17:35:33.932Z,95470.19
2023-04-22T17:38:19.789Z,95465.97
2023-04-22T17:41:05.061Z,95472.19
2023-04-22T17:43:50.470Z,95466.91
2023-04-22T17:46:35.947Z,95481.63
2023-04-22T17:49:20.975Z,95480.63
2023-04-22T17:52:06.157Z,95496.47
2023-04-22T17:54:52.101Z,95494.91
2023-04-22T17:57:37.248Z,95498.84
2023-04-22T18:00:22.712Z,95505.22
2023-04-22T18:03:08.106Z,95506.59
2023-04-22T18:05:53.499Z,95506.81
2023-04-22T18:08:38.770Z,95505.97
2023-04-22T18:11:23.965Z,95518.44
2023-04-22T18:14:09.088Z,95513.41
2023-04-22T18:16:54.355Z,95526.03
2023-04-22T18:19:39.826Z,95527.22
2023-04-22T18:22:26.223Z,95527.94
2023-04-22T18:25:11.246Z,95525.97
2023-04-22T18:27:56.484Z,95524.88
2023-04-22T18:30:41.865Z,95536.28
2023-04-22T18:33:27.281Z,95541.84
2023-04-22T18:36:12.710Z,95544.94
2023-04-22T18:38:58.098Z,95531.06
2023-04-22T18:41:43.377Z,95533.69
2023-04-22T18:44:28.798Z,95539.19
2023-04-22T18:47:14.066Z,95536.13
2023-04-22T18:50:00.206Z,95546.91
2023-04-22T18:52:45.623Z,95550.72
2023-04-22T18:55:30.729Z,95546.38
2023-04-22T18:58:15.849Z,95549.44
2023-04-22T19:01:01.038Z,95547.97
2023-04-22T19:06:32.323Z,95548.91
2023-04-22T19:09:17.611Z,95554.53
2023-04-22T19:12:02.978Z,95555.22
2023-04-22T19:14:48.076Z,95546.56
2023-04-22T19:17:34.749Z,95548.69
2023-04-22T19:20:19.848Z,95545.31
2023-04-22T19:23:05.856Z,95548.44
2023-04-22T19:25:51.677Z,95546.06
2023-04-22T19:28:37.047Z,95546.56
2023-04-22T19:31:22.161Z,95548.28
2023-04-22T19:34:07.481Z,95551.38
2023-04-22T19:36:54.023Z,95548.38
2023-04-22T19:39:39.744Z,95554.75
2023-04-22T19:42:25.391Z,95546.88
2023-04-22T19:45:11.608Z,95551.38
2023-04-22T19:47:57.201Z,95557.72
2023-04-22T19:50:44.148Z,95548.63
2023-04-22T19:53:31.147Z,95547.66
2023-04-22T19:56:16.947Z,95548.31
2023-04-22T19:59:04.981Z,95551.59
2023-04-22T20:01:50.357Z,95554.88
2023-04-22T20:04:35.867Z,95564.66
2023-04-22T20:07:21.586Z,95551.69
2023-04-22T20:10:08.488Z,95547.03
2023-04-22T20:12:55.400Z,95546.44
2023-04-22T20:15:41.058Z,95551.34
2023-04-22T20:18:27.008Z,95554.56
2023-04-22T20:21:14.280Z,95563.13
2023-04-22T20:24:02.711Z,95557.63
2023-04-22T20:26:48.009Z,95558.44
2023-04-22T20:29:36.137Z,95552.97
2023-04-22T20:32:21.372Z,95548.50
2023-04-22T20:35:07.127Z,95554.22
2023-04-22T20:37:54.092Z,95561.72
2023-04-22T20:40:40.997Z,95551.34
2023-04-22T20:43:26.842Z,95554.19
2023-04-22T20:46:12.976Z,95556.00
2023-04-22T20:48:58.372Z,95546.09
2023-04-22T20:51:43.899Z,95538.75
2023-04-22T20:54:30.444Z,95543.63
2023-04-22T20:57:15.922Z,95545.06
2023-04-22T21:00:01.487Z,95546.88
2023-04-22T21:02:47.302Z,95541.78
2023-04-22T21:05:40.775Z,95539.34
2023-04-22T21:08:26.636Z,95550.69
2023-04-22T21:11:12.134Z,95544.59
2023-04-22T21:13:57.386Z,95541.56
2023-04-22T21:16:45.036Z,95543.16
2023-04-22T21:19:34.655Z,95549.22
2023-04-22T21:22:23.476Z,95539.47
2023-04-22T21:25:09.248Z,95539.47
2023-04-22T21:27:54.591Z,95545.94
2023-04-22T21:30:40.100Z,95544.31
2023-04-22T21:33:25.500Z,95551.19
2023-04-22T21:36:11.393Z,95548.94
2023-04-22T21:38:58.511Z,95548.53
2023-04-22T21:41:43.790Z,95548.94
2023-04-22T21:44:29.179Z,95547.28
2023-04-22T21:47:14.541Z,95544.44
2023-04-22T21:49:59.925Z,95551.13
2023-04-22T21:52:45.400Z,95539.34
2023-04-22T21:55:30.772Z,95541.75
2023-04-22T21:58:16.339Z,95553.66
2023-04-22T22:01:01.633Z,95554.25
2023-04-22T22:03:46.998Z,95559.50
2023-04-22T22:06:33.334Z,95565.31
2023-04-22T22:09:18.461Z,95554.19
2023-04-22T22:12:04.375Z,95553.78
2023-04-22T22:14:49.777Z,95546.88
2023-04-22T22:17:37.988Z,95555.16
2023-04-22T22:20:23.904Z,95553.13
2023-04-22T22:23:09.385Z,95554.09
2023-04-22T22:25:54.671Z,95552.06
2023-04-22T22:28:40.054Z,95557.91
2023-04-22T22:31:25.454Z,95553.22
2023-04-22T22:34:11.539Z,95554.63
2023-04-22T22:36:56.627Z,95551.75
2023-04-22T22:39:42.091Z,95549.88
2023-04-22T22:42:27.305Z,95556.53
2023-04-22T22:45:12.890Z,95557.09
2023-04-22T22:47:58.114Z,95553.63
2023-04-22T22:50:43.813Z,95556.63
2023-04-22T22:53:29.054Z,95556.19
2023-04-22T22:56:15.502Z,95553.31
2023-04-22T22:59:00.699Z,95554.72
2023-04-22T23:01:46.266Z,95553.28
2023-04-22T23:04:32.103Z,95551.84
2023-04-22T23:07:17.824Z,95550.00
2023-04-22T23:10:03.071Z,95551.59
2023-04-22T23:12:48.404Z,95558.03
2023-04-22T23:15:33.653Z,95551.53
2023-04-22T23:18:19.045Z,95547.66
2023-04-22T23:21:05.221Z,95552.69
2023-04-22T23:23:50.609Z,95546.16
2023-04-22T23:26:36.875Z,95557.25
2023-04-22T23:29:22.288Z,95548.09
2023-04-22T23:32:08.456Z,95547.31
2023-04-22T23:34:54.567Z,95542.41
2023-04-22T23:37:44.464Z,95549.66
2023-04-22T23:40:29.653Z,95552.47
2023-04-22T23:43:15.167Z,95540.34
2023-04-22T23:46:00.643Z,95549.06
2023-04-22T23:48:46.331Z,95539.09
2023-04-22T23:51:31.390Z,95547.16
2023-04-22T23:54:17.662Z,95543.09
2023-04-22T23:57:02.862Z,95537.41
2023-04-22T23:59:48.051Z,95546.91
